Time;durP1;ratioP1;P1;durP2;ratioP2;P2;SDS_P1;SDS_P2;PMS_P1;PMS_P2;Temp;Humidity;BMP_temperature;BMP_pressure;BME280_temperature;BME280_humidity;BME280_pressure;Samples;Min_cycle;Max_cycle;Signal;HPM_P1;HPM_P2
2022/03/16 00:01:43;;;;;;;37.20;20.48;;;5.80;99.90;;;;;;5055433;28;20041;-70
2022/03/16 00:04:09;;;;;;;40.78;23.13;;;5.80;99.90;;;;;;5061672;28;20143;-70
2022/03/16 00:06:34;;;;;;;42.97;21.52;;;5.80;99.90;;;;;;5058102;28;20043;-70
2022/03/16 00:09:00;;;;;;;36.97;20.63;;;5.80;99.90;;;;;;5052165;28;20033;-70
2022/03/16 00:11:26;;;;;;;38.58;20.77;;;5.80;99.90;;;;;;5051868;28;20120;-70
2022/03/16 00:13:51;;;;;;;43.60;22.20;;;5.80;99.90;;;;;;5033522;28;20132;-70
2022/03/16 00:16:17;;;;;;;51.35;21.48;;;5.80;99.90;;;;;;5051384;28;20124;-70
2022/03/16 00:18:42;;;;;;;41.55;22.10;;;5.70;99.90;;;;;;5050312;28;20452;-71
2022/03/16 00:21:08;;;;;;;41.80;21.52;;;5.70;99.90;;;;;;5048513;28;20102;-69
2022/03/16 00:23:34;;;;;;;46.35;23.13;;;5.70;99.90;;;;;;5079978;28;20079;-69
2022/03/16 00:25:59;;;;;;;41.72;21.25;;;5.70;99.90;;;;;;5091574;28;20496;-69
2022/03/16 00:28:25;;;;;;;38.10;20.65;;;5.60;99.90;;;;;;5091569;28;20403;-70
2022/03/16 00:30:50;;;;;;;39.20;23.88;;;5.50;99.90;;;;;;5091341;28;20145;-70
2022/03/16 00:33:16;;;;;;;44.58;22.85;;;5.50;99.90;;;;;;5090461;28;20051;-70
2022/03/16 00:35:42;;;;;;;46.63;22.80;;;5.50;99.90;;;;;;5091303;28;20040;-69
2022/03/16 00:38:09;;;;;;;38.78;21.27;;;5.50;99.90;;;;;;5091437;28;20078;-70
2022/03/16 00:40:36;;;;;;;41.90;20.63;;;5.50;99.90;;;;;;5090086;28;20054;-70
2022/03/16 00:43:02;;;;;;;44.95;23.10;;;5.50;99.90;;;;;;5090419;28;20040;-70
2022/03/16 00:45:27;;;;;;;45.30;23.40;;;5.60;99.90;;;;;;5091139;28;20047;-70
2022/03/16 00:47:53;;;;;;;49.92;23.23;;;5.60;99.90;;;;;;5089696;28;20479;-69
2022/03/16 00:50:18;;;;;;;42.75;23.10;;;5.70;99.90;;;;;;5089944;28;20044;-70
2022/03/16 00:52:44;;;;;;;55.60;25.73;;;5.70;99.90;;;;;;5090674;28;20032;-69
2022/03/16 00:55:10;;;;;;;55.35;28.00;;;5.70;99.90;;;;;;5091383;28;20363;-69
2022/03/16 00:57:36;;;;;;;47.70;25.42;;;5.70;99.90;;;;;;5089896;28;20048;-69
2022/03/16 01:00:02;;;;;;;47.90;24.98;;;5.80;99.90;;;;;;5089615;28;20040;-69
2022/03/16 01:02:28;;;;;;;50.58;25.13;;;5.80;99.90;;;;;;5088663;28;20036;-69
2022/03/16 01:04:54;;;;;;;47.05;24.27;;;5.70;99.90;;;;;;5089474;28;20510;-70
2022/03/16 01:07:19;;;;;;;53.90;26.95;;;5.80;99.90;;;;;;5091205;28;20143;-70
2022/03/16 01:09:45;;;;;;;55.55;27.92;;;5.80;99.90;;;;;;5091413;28;20032;-69
2022/03/16 01:12:11;;;;;;;54.75;26.65;;;5.80;99.90;;;;;;5090383;28;20079;-69
2022/03/16 01:14:36;;;;;;;51.15;26.52;;;5.80;99.90;;;;;;5094414;28;20047;-70
2022/03/16 01:17:02;;;;;;;55.58;26.88;;;5.80;99.90;;;;;;5103985;28;20043;-70
2022/03/16 01:19:29;;;;;;;58.78;26.70;;;5.90;99.90;;;;;;5112433;28;20036;-69
2022/03/16 01:21:55;;;;;;;56.97;26.33;;;5.90;99.90;;;;;;5111012;28;20050;-70
2022/03/16 01:24:21;;;;;;;47.45;25.48;;;5.90;99.90;;;;;;5090140;28;20040;-69
2022/03/16 01:26:46;;;;;;;52.30;26.85;;;5.90;99.90;;;;;;5090552;28;20651;-70
2022/03/16 01:29:12;;;;;;;44.35;24.10;;;5.90;99.90;;;;;;5088865;28;20076;-69
2022/03/16 01:31:37;;;;;;;47.72;24.10;;;5.90;99.90;;;;;;5090142;28;20032;-69
2022/03/16 01:34:04;;;;;;;51.63;25.20;;;5.90;99.90;;;;;;5090234;28;20104;-70
2022/03/16 01:36:29;;;;;;;47.05;23.90;;;5.90;99.90;;;;;;5090593;28;20040;-70
2022/03/16 01:38:55;;;;;;;46.28;24.13;;;5.80;99.90;;;;;;5090311;28;20044;-69
2022/03/16 01:41:21;;;;;;;46.60;22.33;;;5.70;99.90;;;;;;5090344;28;20499;-70
2022/03/16 01:43:46;;;;;;;52.75;25.50;;;5.80;99.90;;;;;;5089406;28;20040;-69
2022/03/16 01:46:12;;;;;;;55.47;26.83;;;5.80;99.90;;;;;;5090854;28;20043;-69
2022/03/16 01:48:37;;;;;;;52.42;26.17;;;5.80;99.90;;;;;;5090781;28;20066;-69
2022/03/16 01:51:03;;;;;;;54.85;26.45;;;5.80;99.90;;;;;;5089261;28;20075;-70
2022/03/16 01:53:29;;;;;;;46.28;24.80;;;5.80;99.90;;;;;;5089451;28;20130;-69
2022/03/16 01:55:54;;;;;;;46.63;23.20;;;5.80;99.90;;;;;;5088726;28;20044;-70
2022/03/16 01:58:21;;;;;;;44.35;23.30;;;5.80;99.90;;;;;;5089908;28;20594;-69
2022/03/16 02:00:46;;;;;;;37.95;21.35;;;5.60;99.90;;;;;;5090217;28;20427;-70
2022/03/16 02:03:12;;;;;;;38.60;19.75;;;5.50;99.90;;;;;;5089203;28;20059;-69
2022/03/16 02:05:38;;;;;;;41.75;20.83;;;5.50;99.90;;;;;;5088717;28;20044;-70
2022/03/16 02:08:05;;;;;;;37.10;20.20;;;5.40;99.90;;;;;;5090053;28;20059;-69
2022/03/16 02:10:34;;;;;;;37.00;19.95;;;5.30;99.90;;;;;;5089942;28;20047;-69
2022/03/16 02:13:01;;;;;;;36.28;20.20;;;5.30;99.90;;;;;;5089163;28;20044;-70
2022/03/16 02:15:27;;;;;;;48.65;23.60;;;5.40;99.90;;;;;;5090067;28;20350;-69
2022/03/16 02:17:55;;;;;;;46.28;21.42;;;5.40;99.90;;;;;;5088487;28;20032;-70
2022/03/16 02:20:25;;;;;;;49.03;22.58;;;5.20;99.90;;;;;;5089892;28;20115;-70
2022/03/16 02:23:02;;;;;;;43.38;22.73;;;5.20;99.90;;;;;;5088988;28;20077;-69
2022/03/16 02:25:29;;;;;;;40.72;21.55;;;5.10;99.90;;;;;;5089922;28;20037;-69
2022/03/16 02:27:56;;;;;;;39.65;20.05;;;5.00;99.90;;;;;;5101696;28;20067;-70
2022/03/16 02:30:27;;;;;;;30.40;18.45;;;5.00;99.90;;;;;;5091345;28;20050;-69
2022/03/16 02:32:53;;;;;;;31.13;17.60;;;5.00;99.90;;;;;;5090038;28;20492;-70
2022/03/16 02:35:19;;;;;;;36.08;18.23;;;4.90;99.90;;;;;;5091490;28;20458;-70
2022/03/16 02:37:45;;;;;;;35.47;19.08;;;4.90;99.90;;;;;;5093608;28;20134;-70
2022/03/16 02:40:17;;;;;;;38.88;19.35;;;5.00;99.90;;;;;;5101224;28;20044;-68
2022/03/16 02:42:42;;;;;;;35.85;19.85;;;5.10;99.90;;;;;;5111115;28;20047;-69
2022/03/16 02:45:08;;;;;;;35.80;17.88;;;5.00;99.90;;;;;;5109260;28;20040;-69
2022/03/16 02:47:34;;;;;;;36.72;18.60;;;4.90;99.90;;;;;;5095669;28;20047;-69
2022/03/16 02:50:02;;;;;;;40.13;19.13;;;4.90;99.90;;;;;;5093026;28;20081;-69
2022/03/16 02:52:28;;;;;;;37.53;20.02;;;4.90;99.90;;;;;;5091314;28;20058;-69
2022/03/16 02:54:54;;;;;;;36.65;19.25;;;5.00;99.90;;;;;;5093681;28;20044;-69
2022/03/16 02:57:19;;;;;;;36.22;17.95;;;4.90;99.90;;;;;;5093885;28;20518;-69
2022/03/16 02:59:45;;;;;;;32.25;18.27;;;4.70;99.90;;;;;;5093439;28;20040;-69
2022/03/16 03:02:11;;;;;;;34.03;18.00;;;4.80;99.90;;;;;;5092461;28;20044;-69
2022/03/16 03:04:37;;;;;;;33.35;18.23;;;4.80;99.90;;;;;;5093129;28;20173;-69
2022/03/16 03:07:04;;;;;;;31.75;16.27;;;4.70;99.90;;;;;;5091821;28;20132;-69
2022/03/16 03:09:29;;;;;;;23.83;14.50;;;4.60;99.90;;;;;;5091889;28;20054;-69
2022/03/16 03:11:59;;;;;;;23.52;15.25;;;4.50;99.90;;;;;;5092514;28;20044;-69
2022/03/16 03:14:28;;;;;;;28.50;15.77;;;4.40;99.90;;;;;;5093230;28;20054;-69
2022/03/16 03:16:53;;;;;;;30.13;16.88;;;4.30;99.90;;;;;;5092924;28;20032;-69
2022/03/16 03:19:21;;;;;;;26.88;15.95;;;4.20;99.90;;;;;;5091315;28;20523;-69
2022/03/16 03:21:47;;;;;;;;;;;4.20;99.90;;;;;;5092367;28;20409;-69
2022/03/16 03:24:12;;;;;;;;;;;4.10;99.90;;;;;;5093135;28;19924;-69
2022/03/16 03:26:38;;;;;;;;;;;3.80;99.90;;;;;;5075261;28;19923;-69
2022/03/16 03:29:03;;;;;;;;;;;3.80;99.90;;;;;;5091598;28;19916;-69
2022/03/16 03:31:29;;;;;;;;;;;3.80;99.90;;;;;;5091441;28;19916;-69
2022/03/16 03:33:55;;;;;;;16.83;11.93;;;3.70;99.90;;;;;;5091447;28;20918;-69
2022/03/16 03:36:21;;;;;;;24.60;12.02;;;3.70;99.90;;;;;;5092832;28;20051;-69
2022/03/16 03:38:47;;;;;;;16.30;11.15;;;3.80;99.90;;;;;;5098672;28;20131;-69
2022/03/16 03:41:12;;;;;;;14.68;10.75;;;3.70;99.90;;;;;;5107356;28;20035;-70
2022/03/16 03:43:38;;;;;;;14.35;10.25;;;3.60;99.90;;;;;;5093824;28;20535;-69
2022/03/16 03:46:04;;;;;;;13.30;10.48;;;3.50;99.90;;;;;;5090650;28;20468;-70
2022/03/16 03:48:30;;;;;;;14.85;10.57;;;3.50;99.90;;;;;;5092576;28;20441;-70
2022/03/16 03:50:55;;;;;;;16.25;11.90;;;3.50;99.90;;;;;;5092164;28;20039;-70
2022/03/16 03:53:21;;;;;;;17.23;12.10;;;3.60;99.90;;;;;;5091414;28;20032;-70
2022/03/16 03:55:47;;;;;;;16.77;11.68;;;3.70;99.90;;;;;;5090506;28;20142;-70
2022/03/16 03:58:12;;;;;;;16.83;12.38;;;3.80;99.90;;;;;;5092049;28;20118;-70
2022/03/16 04:00:38;;;;;;;19.60;12.43;;;3.90;99.90;;;;;;5090753;28;20051;-69
2022/03/16 04:03:03;;;;;;;19.40;13.68;;;3.80;99.90;;;;;;5091271;28;20047;-69
2022/03/16 04:05:29;;;;;;;20.92;14.20;;;3.80;99.90;;;;;;5102614;28;20024;-69
2022/03/16 04:07:55;;;;;;;20.48;14.50;;;3.70;99.90;;;;;;5107960;28;20075;-69
2022/03/16 04:10:20;;;;;;;20.80;13.52;;;3.70;99.90;;;;;;5096233;28;20055;-70
2022/03/16 04:12:46;;;;;;;19.20;13.05;;;3.80;99.90;;;;;;5090360;28;20043;-70
2022/03/16 04:15:12;;;;;;;18.17;12.80;;;3.80;99.90;;;;;;5073959;28;20048;-69
2022/03/16 04:17:38;;;;;;;23.27;13.80;;;3.80;99.90;;;;;;5091906;28;20051;-70
2022/03/16 04:20:05;;;;;;;23.27;13.88;;;3.90;99.90;;;;;;5090242;28;20515;-69
2022/03/16 04:22:31;;;;;;;23.27;14.50;;;3.90;99.90;;;;;;5091061;28;20040;-70
2022/03/16 04:24:56;;;;;;;21.15;13.63;;;3.90;99.90;;;;;;5091874;28;20044;-69
2022/03/16 04:27:23;;;;;;;24.48;15.68;;;3.90;99.90;;;;;;5091393;28;20499;-70
2022/03/16 04:29:49;;;;;;;30.48;16.83;;;3.90;99.90;;;;;;5091618;28;20040;-69
2022/03/16 04:32:14;;;;;;;34.80;20.10;;;4.00;99.90;;;;;;5090378;28;20407;-69
2022/03/16 04:34:40;;;;;;;30.45;18.27;;;4.10;99.90;;;;;;5091247;28;20119;-70
2022/03/16 04:37:06;;;;;;;32.83;17.70;;;4.00;99.90;;;;;;5091187;28;20047;-69
2022/03/16 04:39:32;;;;;;;31.50;17.33;;;4.00;99.90;;;;;;5089606;28;20051;-69
2022/03/16 04:41:57;;;;;;;31.95;18.88;;;4.10;99.90;;;;;;5090268;28;20044;-69
2022/03/16 04:44:23;;;;;;;27.77;17.48;;;4.10;99.90;;;;;;5090961;28;20032;-69
2022/03/16 04:46:49;;;;;;;32.83;18.00;;;4.20;99.90;;;;;;5091013;28;20044;-70
2022/03/16 04:49:15;;;;;;;32.35;18.35;;;4.20;99.90;;;;;;5090788;28;20036;-69
2022/03/16 04:51:40;;;;;;;31.48;18.70;;;4.10;99.90;;;;;;5102694;28;20044;-70
2022/03/16 04:54:10;;;;;;;30.92;17.50;;;4.10;99.90;;;;;;5106473;28;20177;-69
2022/03/16 04:56:36;;;;;;;38.40;20.58;;;4.10;99.90;;;;;;5090670;28;20043;-69
2022/03/16 04:59:03;;;;;;;34.97;20.58;;;4.20;99.90;;;;;;5090026;28;20365;-69
2022/03/16 05:01:30;;;;;;;31.25;19.42;;;4.20;99.90;;;;;;5090689;28;20067;-70
2022/03/16 05:03:55;;;;;;;36.05;20.45;;;4.20;99.90;;;;;;5091242;28;20036;-69
2022/03/16 05:06:21;;;;;;;38.75;20.85;;;4.20;99.90;;;;;;5091201;28;20093;-69
2022/03/16 05:08:47;;;;;;;28.40;17.45;;;4.20;99.90;;;;;;5090716;28;20050;-69
2022/03/16 05:11:14;;;;;;;34.25;18.25;;;4.20;99.90;;;;;;5090480;28;20039;-69
2022/03/16 05:13:40;;;;;;;31.92;18.15;;;4.20;99.90;;;;;;5089622;28;20539;-69
2022/03/16 05:16:07;;;;;;;34.38;18.52;;;4.20;99.90;;;;;;5090507;28;20040;-69
2022/03/16 05:18:33;;;;;;;35.33;19.58;;;4.20;99.90;;;;;;5090453;28;20066;-69
2022/03/16 05:20:59;;;;;;;34.28;18.83;;;4.20;99.90;;;;;;5090774;28;20043;-69
2022/03/16 05:23:25;;;;;;;31.10;17.60;;;4.20;99.90;;;;;;5089986;28;20083;-69
2022/03/16 05:25:50;;;;;;;29.58;18.33;;;4.10;99.90;;;;;;5090644;28;20715;-69
2022/03/16 05:28:17;;;;;;;30.52;17.70;;;4.00;99.90;;;;;;5095452;28;20040;-69
2022/03/16 05:30:43;;;;;;;34.58;19.58;;;4.00;99.90;;;;;;5108994;28;20040;-69
2022/03/16 05:33:09;;;;;;;32.20;17.67;;;4.00;99.90;;;;;;5100816;28;20039;-69
2022/03/16 05:35:34;;;;;;;27.75;17.40;;;4.00;99.90;;;;;;5082631;28;20135;-70
2022/03/16 05:38:02;;;;;;;24.30;14.73;;;3.90;99.90;;;;;;5089122;28;20039;-69
2022/03/16 05:40:28;;;;;;;22.85;14.07;;;3.80;99.90;;;;;;5090543;28;20039;-69
2022/03/16 05:42:54;;;;;;;20.85;14.02;;;3.70;99.90;;;;;;5088363;28;20040;-69
2022/03/16 05:45:19;;;;;;;22.42;12.68;;;3.60;99.90;;;;;;5090397;28;20450;-69
2022/03/16 05:47:45;;;;;;;21.55;13.73;;;3.60;99.90;;;;;;5090159;28;20624;-69
2022/03/16 05:50:11;;;;;;;27.58;16.88;;;3.40;99.90;;;;;;5086999;28;20040;-70
2022/03/16 05:52:37;;;;;;;33.63;17.92;;;3.60;99.90;;;;;;5086871;28;20093;-69
2022/03/16 05:55:04;;;;;;;36.50;18.20;;;3.50;99.90;;;;;;5088873;28;20040;-69
2022/03/16 05:57:30;;;;;;;36.70;18.88;;;3.50;99.90;;;;;;5090287;28;20043;-69
2022/03/16 05:59:56;;;;;;;34.78;19.65;;;3.60;99.90;;;;;;5088803;28;20123;-68
2022/03/16 06:02:21;;;;;;;35.70;19.38;;;3.80;99.90;;;;;;5090583;28;20082;-68
2022/03/16 06:04:47;;;;;;;36.58;18.75;;;3.80;99.90;;;;;;5099810;28;20044;-69
2022/03/16 06:07:12;;;;;;;41.00;21.92;;;3.90;99.90;;;;;;5094835;28;20489;-68
2022/03/16 06:09:40;;;;;;;38.60;20.60;;;3.90;99.90;;;;;;5091287;28;20123;-68
2022/03/16 06:12:09;;;;;;;40.72;22.10;;;4.00;99.90;;;;;;5092056;28;20040;-69
2022/03/16 06:14:34;;;;;;;44.63;22.90;;;4.00;99.90;;;;;;5094119;28;20131;-68
2022/03/16 06:17:00;;;;;;;38.67;20.85;;;4.00;99.90;;;;;;5094260;28;20079;-68
2022/03/16 06:19:25;;;;;;;42.03;21.70;;;4.10;99.90;;;;;;5093965;28;20392;-68
2022/03/16 06:21:51;;;;;;;43.55;23.73;;;4.10;99.90;;;;;;5092127;28;20052;-68
2022/03/16 06:24:17;;;;;;;42.15;22.67;;;4.10;99.90;;;;;;5094378;28;20226;-69
2022/03/16 06:26:43;;;;;;;44.33;23.67;;;4.20;99.90;;;;;;5092959;28;20036;-69
2022/03/16 06:29:09;;;;;;;46.05;23.73;;;4.20;99.90;;;;;;5093714;28;20043;-69
2022/03/16 06:31:35;;;;;;;36.40;22.58;;;4.30;99.90;;;;;;5093284;28;20040;-70
2022/03/16 06:34:01;;;;;;;40.95;23.15;;;4.40;99.90;;;;;;5093176;28;20493;-69
2022/03/16 06:36:27;;;;;;;43.08;25.48;;;4.40;99.90;;;;;;5093488;28;20032;-69
2022/03/16 06:38:53;;;;;;;47.08;24.85;;;4.40;99.90;;;;;;5092158;28;20085;-69
2022/03/16 06:41:19;;;;;;;44.67;24.73;;;4.50;99.90;;;;;;5075153;28;20036;-70
2022/03/16 06:43:45;;;;;;;43.05;25.77;;;4.50;99.90;;;;;;5092581;28;20039;-69
2022/03/16 06:46:10;;;;;;;44.47;24.95;;;4.50;99.90;;;;;;5093700;28;20675;-69
2022/03/16 06:48:36;;;;;;;45.78;25.92;;;4.60;99.90;;;;;;5093508;28;20119;-70
2022/03/16 06:51:02;;;;;;;44.67;24.98;;;4.60;99.90;;;;;;5094592;28;20395;-69
2022/03/16 06:53:28;;;;;;;46.50;26.17;;;4.60;99.90;;;;;;5109901;28;20047;-69
2022/03/16 06:55:54;;;;;;;50.42;24.85;;;4.60;99.90;;;;;;5107339;28;20439;-69
2022/03/16 06:58:19;;;;;;;46.00;25.80;;;4.60;99.90;;;;;;5093677;28;20114;-69
2022/03/16 07:00:45;;;;;;;44.63;25.05;;;4.70;99.90;;;;;;5074422;28;20079;-69
2022/03/16 07:03:11;;;;;;;44.42;26.33;;;4.80;99.90;;;;;;5070887;28;20036;-70
2022/03/16 07:05:40;;;;;;;45.80;25.30;;;4.80;99.90;;;;;;5071512;28;20135;-69
2022/03/16 07:08:12;;;;;;;46.83;25.80;;;4.90;99.90;;;;;;5071505;28;20040;-69
2022/03/16 07:10:40;;;;;;;48.80;25.48;;;4.90;99.90;;;;;;5071580;28;20037;-69
2022/03/16 07:13:07;;;;;;;41.58;23.95;;;4.90;99.90;;;;;;5070618;28;20527;-69
2022/03/16 07:15:34;;;;;;;49.63;25.88;;;4.90;99.90;;;;;;5076221;28;20119;-70
2022/03/16 07:18:03;;;;;;;45.33;26.38;;;4.90;99.90;;;;;;5061993;28;20044;-69
2022/03/16 07:20:31;;;;;;;43.08;25.17;;;4.90;99.90;;;;;;5072272;28;20043;-69
2022/03/16 07:23:01;;;;;;;43.50;25.88;;;4.90;99.90;;;;;;5072016;28;20070;-69
2022/03/16 07:25:27;;;;;;;49.28;28.15;;;5.00;99.90;;;;;;5072156;28;20044;-69
2022/03/16 07:27:52;;;;;;;40.88;24.70;;;5.10;99.90;;;;;;5066856;28;20045;-68
2022/03/16 07:30:18;;;;;;;42.97;25.48;;;5.20;99.90;;;;;;5084799;28;20028;-69
2022/03/16 07:32:44;;;;;;;43.25;25.63;;;5.20;99.90;;;;;;5091875;28;20447;-69
2022/03/16 07:35:09;;;;;;;43.80;26.48;;;5.20;99.90;;;;;;5091117;28;20122;-70
2022/03/16 07:37:36;;;;;;;50.67;26.75;;;5.40;99.90;;;;;;5091138;28;20515;-69
2022/03/16 07:40:03;;;;;;;42.75;25.70;;;5.40;99.90;;;;;;5091056;28;20043;-68
2022/03/16 07:42:30;;;;;;;48.38;26.17;;;5.50;99.90;;;;;;5092061;28;20393;-68
2022/03/16 07:44:56;;;;;;;50.42;28.05;;;5.60;99.90;;;;;;5091023;28;20122;-70
2022/03/16 07:47:24;;;;;;;47.65;25.48;;;5.60;99.90;;;;;;5092502;28;20044;-69
2022/03/16 07:49:50;;;;;;;45.05;25.58;;;5.70;99.90;;;;;;5092218;28;20066;-70
2022/03/16 07:52:16;;;;;;;47.13;26.60;;;5.70;99.90;;;;;;5051192;28;20037;-70
2022/03/16 07:54:41;;;;;;;48.50;26.58;;;5.80;99.90;;;;;;5051741;28;20124;-70
2022/03/16 07:57:08;;;;;;;46.35;26.90;;;5.90;99.90;;;;;;5052038;28;20110;-69
2022/03/16 07:59:34;;;;;;;47.15;27.73;;;5.90;99.90;;;;;;5051632;28;20040;-69
2022/03/16 08:01:59;;;;;;;44.75;25.48;;;6.00;99.90;;;;;;5049933;28;20355;-69
2022/03/16 08:04:25;;;;;;;48.03;28.15;;;6.10;99.90;;;;;;5051509;28;20061;-67
2022/03/16 08:06:50;;;;;;;44.55;26.35;;;6.40;99.90;;;;;;5051435;28;20064;-69
2022/03/16 08:09:16;;;;;;;41.97;24.92;;;6.30;99.90;;;;;;5051339;28;20033;-69
2022/03/16 08:11:42;;;;;;;50.55;26.63;;;6.30;99.90;;;;;;5055696;28;20132;-69
2022/03/16 08:14:07;;;;;;;46.35;24.77;;;6.40;99.90;;;;;;5059631;28;20041;-71
2022/03/16 08:16:33;;;;;;;43.90;25.98;;;6.50;99.90;;;;;;5073689;28;20048;-72
2022/03/16 08:18:59;;;;;;;45.95;25.48;;;6.60;99.90;;;;;;5060339;28;20048;-74
2022/03/16 08:21:25;;;;;;;46.60;26.40;;;6.70;99.90;;;;;;5052781;28;20041;-70
2022/03/16 08:23:51;;;;;;;44.03;24.48;;;7.00;99.90;;;;;;5051026;28;20579;-70
2022/03/16 08:26:16;;;;;;;47.70;26.20;;;7.00;99.90;;;;;;5052496;28;20289;-70
2022/03/16 08:28:43;;;;;;;41.42;25.85;;;7.10;99.90;;;;;;5055027;28;20041;-69
2022/03/16 08:31:10;;;;;;;44.25;27.88;;;7.30;99.90;;;;;;5052035;28;20130;-69
2022/03/16 08:33:35;;;;;;;44.88;25.55;;;7.40;99.90;;;;;;5050229;28;20045;-70
2022/03/16 08:36:02;;;;;;;46.33;25.88;;;7.40;99.90;;;;;;5049856;28;20048;-69
2022/03/16 08:38:32;;;;;;;47.08;27.20;;;7.60;99.90;;;;;;5050921;28;20119;-70
2022/03/16 08:40:57;;;;;;;50.20;27.30;;;7.70;99.90;;;;;;5050903;28;20052;-69
2022/03/16 08:43:23;;;;;;;44.90;25.85;;;7.70;99.90;;;;;;5049156;28;20037;-70
2022/03/16 08:45:48;;;;;;;46.22;25.08;;;7.70;99.90;;;;;;5051142;28;20136;-69
2022/03/16 08:48:15;;;;;;;46.92;27.23;;;7.80;99.90;;;;;;5050872;28;20048;-70
2022/03/16 08:50:41;;;;;;;45.47;24.75;;;7.80;99.90;;;;;;5049592;28;20037;-69
2022/03/16 08:53:06;;;;;;;42.30;25.38;;;8.00;99.90;;;;;;5049816;28;20071;-69
2022/03/16 08:55:32;;;;;;;46.20;26.25;;;8.10;99.90;;;;;;5050964;28;20044;-71
2022/03/16 08:57:57;;;;;;;41.25;25.60;;;8.20;99.90;;;;;;5050828;28;20051;-71
2022/03/16 09:00:23;;;;;;;44.08;25.23;;;8.20;99.90;;;;;;5051001;28;20116;-70
2022/03/16 09:02:49;;;;;;;39.28;22.98;;;8.30;99.90;;;;;;5050045;28;20040;-70
2022/03/16 09:05:17;;;;;;;43.58;23.88;;;8.40;99.90;;;;;;5050791;28;20120;-70
2022/03/16 09:07:43;;;;;;;44.80;23.40;;;8.50;99.90;;;;;;5050203;28;20040;-70
2022/03/16 09:10:08;;;;;;;42.15;22.98;;;8.60;99.90;;;;;;5050544;28;20033;-70
2022/03/16 09:12:35;;;;;;;36.70;22.00;;;8.70;99.90;;;;;;5049976;28;20033;-70
2022/03/16 09:15:01;;;;;;;36.63;21.52;;;8.80;99.90;;;;;;5050537;28;20053;-70
2022/03/16 09:17:28;;;;;;;35.38;20.15;;;8.90;99.90;;;;;;5050497;28;20045;-70
2022/03/16 09:19:53;;;;;;;39.35;20.80;;;9.00;99.90;;;;;;5050496;28;20052;-70
2022/03/16 09:22:20;;;;;;;32.10;19.20;;;9.20;99.90;;;;;;5049593;28;20048;-70
2022/03/16 09:24:48;;;;;;;34.97;20.58;;;9.20;99.90;;;;;;5050525;28;20049;-71
2022/03/16 09:27:14;;;;;;;36.13;19.45;;;9.40;99.90;;;;;;5050433;28;20037;-70
2022/03/16 09:29:40;;;;;;;33.47;19.40;;;9.50;99.90;;;;;;5050271;28;20040;-70
2022/03/16 09:32:07;;;;;;;39.05;20.10;;;9.50;99.90;;;;;;5049617;28;20095;-70
2022/03/16 09:34:32;;;;;;;33.60;18.00;;;9.70;99.90;;;;;;5052065;28;20498;-70
2022/03/16 09:36:58;;;;;;;;;;;9.80;99.90;;;;;;5072468;28;20041;-70
2022/03/16 09:39:23;;;;;;;;;;;9.80;99.90;;;;;;5070633;28;20486;-70
2022/03/16 09:41:49;;;;;;;;;;;9.80;99.90;;;;;;5061161;28;19924;-70
2022/03/16 09:44:15;;;;;;;;;;;9.70;99.90;;;;;;5055841;28;19933;-70
2022/03/16 09:46:42;;;;;;;;;;;9.70;99.90;;;;;;5051266;28;20387;-70
2022/03/16 09:49:07;;;;;;;;;;;9.90;99.90;;;;;;5049126;28;19920;-70
2022/03/16 09:51:35;;;;;;;;;;;10.00;99.90;;;;;;5048368;28;19928;-70
2022/03/16 09:54:04;;;;;;;;;;;10.10;99.90;;;;;;5070300;28;19920;-70
2022/03/16 09:56:32;;;;;;;;;;;10.30;99.90;;;;;;5089339;28;19916;-75
2022/03/16 09:58:57;;;;;;;;;;;10.30;99.90;;;;;;5090798;28;19924;-75
2022/03/16 10:01:23;;;;;;;;;;;10.50;99.90;;;;;;5090747;28;19989;-75
2022/03/16 10:03:49;;;;;;;;;;;10.50;99.90;;;;;;5089981;28;19930;-75
2022/03/16 10:06:17;;;;;;;;;;;10.60;99.90;;;;;;5072684;28;20474;-75
2022/03/16 10:13:13;;;;;;;;;;;10.70;99.90;;;;;;5089275;28;19966;-75
2022/03/16 10:14:14;;;;;;;;;;;10.80;99.90;;;;;;5090675;28;20306;-75
2022/03/16 10:19:48;;;;;;;;;;;11.00;99.90;;;;;;5099247;28;19916;-76
2022/03/16 10:22:22;;;;;;;;;;;11.00;99.90;;;;;;5091042;28;19915;-75
2022/03/16 10:24:48;;;;;;;;;;;11.10;99.90;;;;;;5090743;28;19976;-75
2022/03/16 10:27:17;;;;;;;;;;;11.20;99.90;;;;;;5090486;28;19916;-74
2022/03/16 10:29:42;;;;;;;;;;;11.10;99.90;;;;;;5090501;28;19931;-74
2022/03/16 10:32:08;;;;;;;;;;;11.20;99.90;;;;;;5088281;28;19916;-75
2022/03/16 10:34:33;;;;;;;;;;;11.20;99.90;;;;;;5090278;28;19916;-75
2022/03/16 10:36:59;;;;;;;;;;;11.30;99.90;;;;;;5090455;28;20376;-75
2022/03/16 10:39:31;;;;;;;;;;;11.30;99.90;;;;;;5090286;28;19916;-75
2022/03/16 10:47:35;;;;;;;;;;;11.30;99.90;;;;;;5097291;28;19915;-74
2022/03/16 10:50:04;;;;;;;;;;;11.60;99.90;;;;;;5101540;28;19916;-75
2022/03/16 10:52:31;;;;;;;;;;;11.70;99.90;;;;;;5090465;28;19967;-75
2022/03/16 10:54:57;;;;;;;;;;;11.70;99.90;;;;;;5103131;28;20002;-74
2022/03/16 10:57:22;;;;;;;;;;;11.80;99.90;;;;;;5116672;28;19916;-75
2022/03/16 10:59:50;;;;;;;;;;;11.90;99.90;;;;;;5102809;28;20423;-75
2022/03/16 11:02:17;;;;;;;;;;;12.00;99.90;;;;;;5094502;28;19950;-75
2022/03/16 11:04:43;;;;;;;;;;;11.90;99.90;;;;;;5093982;28;20157;-75
2022/03/16 11:07:09;;;;;;;;;;;11.80;99.90;;;;;;5094031;28;19976;-75
2022/03/16 11:09:36;;;;;;;;;;;11.80;99.90;;;;;;5094056;28;19999;-75
2022/03/16 11:14:47;;;;;;;;;;;11.90;99.90;;;;;;5093664;28;19916;-75
2022/03/16 11:17:13;;;;;;;;;;;12.00;99.90;;;;;;5094110;28;19920;-75
2022/03/16 11:19:44;;;;;;;;;;;11.90;99.90;;;;;;5092346;28;19936;-76
2022/03/16 11:22:16;;;;;;;;;;;12.00;99.90;;;;;;5092095;28;19930;-75
2022/03/16 11:24:45;;;;;;;;;;;12.10;99.90;;;;;;5095379;28;19920;-77
2022/03/16 11:27:14;;;;;;;;;;;12.10;99.90;;;;;;5093279;28;19920;-76
2022/03/16 11:29:49;;;;;;;;;;;12.20;99.90;;;;;;5093499;28;20025;-76
2022/03/16 11:32:15;;;;;;;;;;;12.20;99.90;;;;;;5093749;28;19916;-76
2022/03/16 11:34:48;;;;;;;;;;;12.30;99.90;;;;;;5096917;28;19927;-76
2022/03/16 11:37:14;;;;;;;;;;;12.40;99.90;;;;;;5093397;28;19916;-76
2022/03/16 11:39:44;;;;;;;;;;;12.40;99.90;;;;;;5091675;28;19922;-76
2022/03/16 11:42:11;;;;;;;;;;;12.50;99.90;;;;;;5090889;28;19916;-77
2022/03/16 11:44:38;;;;;;;;;;;12.70;99.90;;;;;;5093265;28;19920;-76
2022/03/16 11:47:09;;;;;;;;;;;12.80;99.90;;;;;;5093221;28;20002;-76
2022/03/16 11:49:41;;;;;;;;;;;12.80;99.90;;;;;;5091468;28;19916;-76
2022/03/16 11:52:08;;;;;;;;;;;12.70;99.90;;;;;;5091132;28;19959;-76
2022/03/16 11:54:48;;;;;;;;;;;12.80;99.90;;;;;;5097126;28;19955;-75
2022/03/16 11:57:15;;;;;;;;;;;12.80;99.90;;;;;;5096709;28;20317;-76
2022/03/16 11:59:44;;;;;;;;;;;12.70;99.90;;;;;;5095454;28;19924;-76
2022/03/16 12:02:12;;;;;;;;;;;12.90;99.90;;;;;;5092508;28;19916;-77
2022/03/16 12:04:39;;;;;;;;;;;12.80;99.90;;;;;;5091831;28;20327;-77
2022/03/16 12:07:06;;;;;;;;;;;12.90;99.90;;;;;;5092696;28;20360;-76
2022/03/16 12:09:45;;;;;;;;;;;12.90;99.90;;;;;;5091734;28;20278;-77
2022/03/16 12:15:09;;;;;;;;;;;12.90;99.90;;;;;;5113350;28;19907;-76
2022/03/16 12:17:35;;;;;;;;;;;13.10;99.90;;;;;;5116661;28;19926;-77
2022/03/16 12:20:11;;;;;;;;;;;13.30;99.90;;;;;;5093560;28;19980;-76
2022/03/16 12:22:47;;;;;;;;;;;13.30;99.90;;;;;;5091300;28;19920;-76
2022/03/16 12:25:27;;;;;;;;;;;13.30;99.90;;;;;;5091472;28;19924;-77
2022/03/16 12:30:48;;;;;;;;;;;13.50;98.90;;;;;;5092870;28;19920;-75
2022/03/16 12:33:19;;;;;;;;;;;13.40;99.90;;;;;;5090322;28;19919;-75
2022/03/16 12:35:45;;;;;;;;;;;13.50;99.90;;;;;;5091971;28;20068;-75
2022/03/16 12:38:11;;;;;;;;;;;13.60;99.30;;;;;;5091881;28;19938;-75
2022/03/16 12:42:31;;;;;;;;;;;13.60;97.10;;;;;;5090324;28;19915;-75
2022/03/16 12:43:23;;;;;;;;;;;13.50;99.20;;;;;;5089663;28;20006;-75
2022/03/16 12:45:49;;;;;;;;;;;13.50;99.90;;;;;;5091866;28;19927;-75
2022/03/16 12:48:19;;;;;;;;;;;13.50;96.50;;;;;;5091836;28;20014;-75
2022/03/16 12:50:47;;;;;;;;;;;13.70;96.00;;;;;;5100958;28;20007;-75
2022/03/16 12:53:13;;;;;;;;;;;13.60;97.70;;;;;;5097502;28;20003;-74
2022/03/16 12:55:53;;;;;;;;;;;13.60;95.50;;;;;;5073718;28;19951;-75
2022/03/16 12:58:23;;;;;;;;;;;13.80;99.90;;;;;;5092177;28;19916;-75
2022/03/16 13:00:57;;;;;;;;;;;13.80;97.90;;;;;;5091711;28;20007;-75
2022/03/16 13:03:24;;;;;;;;;;;13.60;96.00;;;;;;5091079;28;19916;-75
2022/03/16 13:05:50;;;;;;;;;;;13.70;98.40;;;;;;5095705;28;19967;-74
2022/03/16 13:08:19;;;;;;;;;;;13.60;94.20;;;;;;5106401;28;20348;-75
2022/03/16 13:13:29;;;;;;;;;;;13.60;97.30;;;;;;5091098;28;19919;-74
2022/03/16 13:15:57;;;;;;;;;;;13.70;98.10;;;;;;5089759;28;19916;-75
2022/03/16 13:18:32;;;;;;;;;;;13.70;99.90;;;;;;5088898;28;19915;-74
2022/03/16 13:20:58;;;;;;;;;;;13.60;97.30;;;;;;5090975;28;20349;-74
2022/03/16 13:23:32;;;;;;;;;;;13.70;99.00;;;;;;5088924;28;19915;-74